Map

Track Data

SID SEASON NUMBER BASIN SUBBASIN NAME ISO_TIME NATURE LAT LON WMO_WIND WMO_PRES WMO_AGENCY TRACK_TYPE DIST2LAND LANDFALL IFLAG USA_AGENCY USA_ATCF_ID USA_LAT USA_LON USA_RECORD USA_STATUS USA_WIND USA_PRES USA_SSHS USA_R34_NE USA_R34_SE USA_R34_SW USA_R34_NW USA_R50_NE USA_R50_SE USA_R50_SW USA_R50_NW USA_R64_NE USA_R64_SE USA_R64_SW USA_R64_NW USA_POCI USA_ROCI USA_RMW USA_EYE TOKYO_LAT TOKYO_LON TOKYO_GRADE TOKYO_WIND TOKYO_PRES TOKYO_R50_DIR TOKYO_R50_LONG TOKYO_R50_SHORT TOKYO_R30_DIR TOKYO_R30_LONG TOKYO_R30_SHORT TOKYO_LAND CMA_LAT CMA_LON CMA_CAT CMA_WIND CMA_PRES HKO_LAT HKO_LON HKO_CAT HKO_WIND HKO_PRES NEWDELHI_LAT NEWDELHI_LON NEWDELHI_GRADE NEWDELHI_WIND NEWDELHI_PRES NEWDELHI_CI NEWDELHI_DP NEWDELHI_POCI REUNION_LAT REUNION_LON REUNION_TYPE REUNION_WIND REUNION_PRES REUNION_TNUM REUNION_CI REUNION_RMW REUNION_R34_NE REUNION_R34_SE REUNION_R34_SW REUNION_R34_NW REUNION_R50_NE REUNION_R50_SE REUNION_R50_SW REUNION_R50_NW REUNION_R64_NE REUNION_R64_SE REUNION_R64_SW REUNION_R64_NW BOM_LAT BOM_LON BOM_TYPE BOM_WIND BOM_PRES BOM_TNUM BOM_CI BOM_RMW BOM_R34_NE BOM_R34_SE BOM_R34_SW BOM_R34_NW BOM_R50_NE BOM_R50_SE BOM_R50_SW BOM_R50_NW BOM_R64_NE BOM_R64_SE BOM_R64_SW BOM_R64_NW BOM_ROCI BOM_POCI BOM_EYE BOM_POS_METHOD BOM_PRES_METHOD NADI_LAT NADI_LON NADI_CAT NADI_WIND NADI_PRES WELLINGTON_LAT WELLINGTON_LON WELLINGTON_WIND WELLINGTON_PRES DS824_LAT DS824_LON DS824_STAGE DS824_WIND DS824_PRES TD9636_LAT TD9636_LON TD9636_STAGE TD9636_WIND TD9636_PRES TD9635_LAT TD9635_LON TD9635_WIND TD9635_PRES TD9635_ROCI NEUMANN_LAT NEUMANN_LON NEUMANN_CLASS NEUMANN_WIND NEUMANN_PRES MLC_LAT MLC_LON MLC_CLASS MLC_WIND MLC_PRES USA_GUST BOM_GUST BOM_GUST_PER REUNION_GUST REUNION_GUST_PER USA_SEAHGT USA_SEARAD_NE USA_SEARAD_SE USA_SEARAD_SW USA_SEARAD_NW STORM_SPEED STORM_DIR
1974105N12062 1974 32 NI AS NOT_NAMED 1974-04-14 12:00:00 TS 12.0000 61.9000 main 807 783 O________OO___ jtwc_io IO011974 12.0000 61.9000 -1 12.0000 61.9000 TC 25 12.0000 61.9000 1 6 308
1974105N12062 1974 32 NI AS NOT_NAMED 1974-04-14 15:00:00 TS 12.1909 61.6468 main 772 749 P________PP___ IO011974 12.1776 61.6351 -1 12.1776 61.6351 TC 25 12.2174 61.6704 1 6 312
1974105N12062 1974 32 NI AS NOT_NAMED 1974-04-14 18:00:00 TS 12.4193 61.4175 main 749 727 O________OP___ jtwc_io IO011974 12.4000 61.4000 -1 12.4000 61.4000 TC 25 12.4578 61.4526 1 7 323
1974105N12062 1974 32 NI AS NOT_NAMED 1974-04-14 21:00:00 TS 12.7181 61.2328 main 727 717 P________PP___ IO011974 12.7050 61.2200 -1 12.7050 61.2200 TC 25 12.7442 61.2584 1 8 336
1974105N12062 1974 32 NI AS NOT_NAMED 1974-04-15 00:00:00 TS 13.1000 61.1000 main 718 696 O________OO___ jtwc_io IO011974 13.1000 61.1000 -1 13.1000 61.1000 TC 25 13.1000 61.1000 1 9 346
1974105N12062 1974 32 NI AS NOT_NAMED 1974-04-15 03:00:00 TS 13.5692 61.0144 main 688 655 P________PP___ IO011974 13.5850 61.0275 -1 13.5850 61.0275 TC 25 13.5377 60.9883 1 10 353
1974105N12062 1974 32 NI AS NOT_NAMED 1974-04-15 06:00:00 TS 14.0758 60.9768 main 645 608 O________OP___ jtwc_io IO011974 14.1000 61.0000 -1 14.1000 61.0000 TC 25 14.0273 60.9303 1 10 357
1974105N12062 1974 32 NI AS NOT_NAMED 1974-04-15 09:00:00 TS 14.5578 60.9624 main 598 562 P________PP___ IO011974 14.5725 60.9775 -1 14.5725 60.9775 TC 30 14.5283 60.9322 1 9 1
1974105N12062 1974 32 NI AS NOT_NAMED 1974-04-15 12:00:00 TS 15.0000 61.0000 main 562 535 O________OO___ jtwc_io IO011974 15.0000 61.0000 -1 15.0000 61.0000 TC 35 15.0000 61.0000 2 8 7
1974105N12062 1974 32 NI AS NOT_NAMED 1974-04-15 15:00:00 TS 15.3664 61.0631 main 534 516 P________PP___ IO011974 15.3649 61.0551 -1 15.3649 61.0551 TC 35 15.3692 61.0791 2 7 16
1974105N12062 1974 32 NI AS NOT_NAMED 1974-04-15 18:00:00 TS 15.7022 61.2096 main 516 508 O________OP___ jtwc_io IO011974 15.7000 61.2000 -1 15.7000 61.2000 TC 35 15.7067 61.2288 2 8 29
1974105N12062 1974 32 NI AS NOT_NAMED 1974-04-15 21:00:00 TS 16.0368 61.4432 main 508 501 P________PP___ IO011974 16.0348 61.4328 -1 16.0348 61.4328 TC 35 16.0408 61.4640 2 9 39
1974105N12062 1974 32 NI AS NOT_NAMED 1974-04-16 00:00:00 TS 16.4000 61.8000 main 514 514 O________OO___ jtwc_io IO011974 16.4000 61.8000 -1 16.4000 61.8000 TC 35 16.4000 61.8000 2 12 45
1974105N12062 1974 32 NI AS NOT_NAMED 1974-04-16 03:00:00 TS 16.8457 62.2989 main 536 530 P________PP___ IO011974 16.8351 62.3124 -1 16.8351 62.3124 TC 30 16.8669 62.2719 2 14 48
1974105N12062 1974 32 NI AS NOT_NAMED 1974-04-16 06:00:00 TS 17.3180 62.8791 main 571 567 O________OP___ jtwc_io IO011974 17.3000 62.9000 -1 17.3000 62.9000 TC 25 17.3539 62.8374 2 15 49
1974105N12062 1974 32 NI AS NOT_NAMED 1974-04-16 09:00:00 TS 17.7912 63.4547 main 596 588 P________PP___ IO011974 17.7800 63.4649 -1 17.7800 63.4649 TC 25 17.8138 63.4344 2 14 50
1974105N12062 1974 32 NI AS NOT_NAMED 1974-04-16 12:00:00 TS 18.2000 64.0000 main 608 608 O________OO___ jtwc_io IO011974 18.2000 64.0000 -1 18.2000 64.0000 TC 25 18.2000 64.0000 1 12 54
1974105N12062 1974 32 NI AS NOT_NAMED 1974-04-16 15:00:00 TS 18.4947 64.4817 main 625 579 P________PP___ IO011974 18.5024 64.4802 -1 18.5024 64.4802 TC 25 18.4793 64.4845 1 10 60
1974105N12062 1974 32 NI AS NOT_NAMED 1974-04-16 18:00:00 TS 18.6897 64.8989 main 579 549 O________OP___ jtwc_io IO011974 18.7000 64.9000 -1 18.7000 64.9000 TC 25 18.6692 64.8966 1 8 67
1974105N12062 1974 32 NI AS NOT_NAMED 1974-04-16 21:00:00 TS 18.8133 65.2634 main 541 512 P________PP___ IO011974 18.8201 65.2649 -1 18.8201 65.2649 TC 25 18.7996 65.2604 1 7 72
1974105N12062 1974 32 NI AS NOT_NAMED 1974-04-17 00:00:00 TS 18.9000 65.6000 main 512 O________OO___ jtwc_io IO011974 18.9000 65.6000 -1 18.9000 65.6000 TC 25 18.9000 65.6000 6 7 75

About IBTrACS Database

This database is a web-friendly format of International Best Track Archive for Climate Stewardship (IBTrACS), a global best track data archive curated by NOAA dating back to 1842.

Updated: 2021-11-26